Time;durP1;ratioP1;P1;durP2;ratioP2;P2;SDS_P1;SDS_P2;PMS_P1;PMS_P2;Temp;Humidity;BMP_temperature;BMP_pressure;BME280_temperature;BME280_humidity;BME280_pressure;Samples;Min_cycle;Max_cycle;Signal;HPM_P1;HPM_P2
2022/03/05 00:00:59;;;;;;;7.70;5.50;;;-0.80;99.90;;;;;;5098196;28;20055;-56
2022/03/05 00:03:25;;;;;;;8.77;5.68;;;-0.80;99.90;;;;;;5092386;28;20043;-56
2022/03/05 00:05:51;;;;;;;8.27;4.57;;;-0.90;99.90;;;;;;5088401;28;20047;-56
2022/03/05 00:08:16;;;;;;;6.38;4.38;;;-0.90;99.90;;;;;;5084929;28;20052;-56
2022/03/05 00:10:42;;;;;;;8.90;4.85;;;-0.90;99.90;;;;;;5083497;28;20050;-57
2022/03/05 00:13:08;;;;;;;8.85;4.97;;;-0.90;99.90;;;;;;5082829;28;20048;-56
2022/03/05 00:15:34;;;;;;;7.85;4.60;;;-0.90;99.90;;;;;;5084605;28;20086;-56
2022/03/05 00:18:00;;;;;;;7.88;4.63;;;-0.90;99.90;;;;;;5084506;28;20119;-56
2022/03/05 00:20:26;;;;;;;9.55;5.18;;;-0.90;99.90;;;;;;5086595;28;20062;-56
2022/03/05 00:22:52;;;;;;;8.65;5.28;;;-0.90;99.90;;;;;;5103545;28;20043;-57
2022/03/05 00:25:20;;;;;;;7.25;5.10;;;-0.90;99.90;;;;;;5104644;28;20051;-56
2022/03/05 00:27:46;;;;;;;12.15;6.00;;;-0.90;99.90;;;;;;5104536;28;20132;-56
2022/03/05 00:30:12;;;;;;;8.60;5.43;;;-0.90;99.90;;;;;;5104907;28;20500;-56
2022/03/05 00:32:38;;;;;;;10.15;6.35;;;-0.90;99.90;;;;;;5103485;28;20066;-56
2022/03/05 00:35:05;;;;;;;8.02;5.45;;;-0.90;99.90;;;;;;5104754;28;20083;-56
2022/03/05 00:37:32;;;;;;;14.25;6.75;;;-0.90;99.90;;;;;;5104300;28;20047;-57
2022/03/05 00:39:58;;;;;;;11.05;6.35;;;-0.90;99.90;;;;;;5105086;28;20039;-56
2022/03/05 00:42:23;;;;;;;8.35;5.57;;;-1.00;99.90;;;;;;5103474;28;20074;-56
2022/03/05 00:44:49;;;;;;;6.75;4.55;;;-1.00;99.90;;;;;;5104453;28;20385;-56
2022/03/05 00:47:16;;;;;;;8.75;5.63;;;-1.00;99.90;;;;;;5103956;28;20532;-56
2022/03/05 00:49:41;;;;;;;9.18;5.68;;;-1.00;99.90;;;;;;5100216;28;20090;-58
2022/03/05 00:52:08;;;;;;;11.35;5.60;;;-1.00;99.90;;;;;;5086804;28;20047;-58
2022/03/05 00:54:34;;;;;;;9.38;5.60;;;-1.00;99.90;;;;;;5097771;28;20485;-60
2022/03/05 00:56:59;;;;;;;7.60;5.32;;;-1.00;99.90;;;;;;5107180;28;20122;-57
2022/03/05 00:59:25;;;;;;;10.18;5.53;;;0.30;99.90;;;;;;5105806;28;20044;-58
2022/03/05 01:01:51;;;;;;;8.38;5.10;;;-1.00;99.90;;;;;;5094061;28;20155;-56
2022/03/05 01:04:16;;;;;;;7.97;5.35;;;-0.20;99.90;;;;;;5119489;27;20151;-56
2022/03/05 01:06:42;;;;;;;9.93;6.72;;;-1.10;99.90;;;;;;5086799;28;20518;-56
2022/03/05 01:09:08;;;;;;;8.60;5.55;;;-1.10;99.90;;;;;;5084760;28;20040;-56
2022/03/05 01:11:33;;;;;;;14.02;5.13;;;-1.10;99.90;;;;;;5101439;28;20044;-56
2022/03/05 01:13:59;;;;;;;7.50;4.80;;;-1.10;99.90;;;;;;5107364;28;20130;-56
2022/03/05 01:16:25;;;;;;;8.65;5.03;;;-0.80;99.90;;;;;;5105333;28;20036;-56
2022/03/05 01:18:50;;;;;;;12.63;5.43;;;-1.10;99.90;;;;;;5106707;28;20046;-56
2022/03/05 01:21:16;;;;;;;8.52;5.22;;;-1.20;99.90;;;;;;5077920;28;20062;-56
2022/03/05 01:23:42;;;;;;;9.77;5.22;;;-1.20;99.90;;;;;;5085190;28;20119;-56
2022/03/05 01:26:08;;;;;;;9.27;5.00;;;-1.30;99.90;;;;;;5086532;28;20082;-57
2022/03/05 01:28:34;;;;;;;11.05;5.78;;;-1.20;99.90;;;;;;5087597;28;20063;-56
2022/03/05 01:30:59;;;;;;;9.07;5.32;;;-1.20;99.90;;;;;;5086895;28;20660;-57
2022/03/05 01:33:25;;;;;;;8.63;5.80;;;-1.20;99.90;;;;;;5118327;27;20059;-56
2022/03/05 01:35:51;;;;;;;9.68;5.53;;;-1.20;99.90;;;;;;5086646;28;20044;-56
2022/03/05 01:38:18;;;;;;;8.65;4.85;;;-1.20;99.90;;;;;;5086726;28;20052;-56
2022/03/05 01:40:44;;;;;;;9.65;5.82;;;-1.30;99.90;;;;;;5085017;28;20260;-56
2022/03/05 01:43:11;;;;;;;7.93;5.18;;;-1.20;99.90;;;;;;5086982;28;20051;-57
2022/03/05 01:45:37;;;;;;;8.85;5.13;;;-1.20;99.90;;;;;;5086591;28;20140;-56
2022/03/05 01:48:03;;;;;;;10.25;5.85;;;-1.30;99.90;;;;;;5085128;28;20048;-57
2022/03/05 01:50:30;;;;;;;9.93;5.38;;;-1.20;99.90;;;;;;5086456;28;20055;-57
2022/03/05 01:52:56;;;;;;;9.73;5.75;;;-1.30;99.90;;;;;;5086911;28;20043;-57
2022/03/05 01:55:23;;;;;;;8.75;5.25;;;-1.20;99.90;;;;;;5086522;28;20059;-56
2022/03/05 01:57:49;;;;;;;9.18;5.68;;;-1.20;99.90;;;;;;5094652;28;20039;-56
2022/03/05 02:00:16;;;;;;;10.07;5.63;;;-1.30;99.90;;;;;;5106907;28;20047;-58
2022/03/05 02:02:45;;;;;;;10.77;6.05;;;-1.30;99.90;;;;;;5096279;28;20044;-56
2022/03/05 02:05:13;;;;;;;11.63;6.53;;;-0.70;99.90;;;;;;5105505;28;20048;-56
2022/03/05 02:07:39;;;;;;;17.13;6.20;;;-1.10;99.90;;;;;;5105515;28;20059;-56
2022/03/05 02:10:06;;;;;;;9.05;5.65;;;-1.20;99.90;;;;;;5102607;28;20043;-57
2022/03/05 02:12:34;;;;;;;7.45;5.18;;;-1.20;99.90;;;;;;5086367;28;20055;-56
2022/03/05 02:15:00;;;;;;;9.82;5.72;;;-1.20;99.90;;;;;;5089975;28;20123;-57
2022/03/05 02:17:28;;;;;;;8.52;6.13;;;-1.20;99.90;;;;;;5090606;28;20123;-57
2022/03/05 02:19:54;;;;;;;12.32;6.18;;;-1.20;99.90;;;;;;5094790;28;20168;-57
2022/03/05 02:22:20;;;;;;;10.75;5.97;;;-1.20;99.90;;;;;;5110542;28;20051;-57
2022/03/05 02:24:50;;;;;;;11.15;5.32;;;-1.20;99.90;;;;;;5110194;28;20474;-56
2022/03/05 02:27:16;;;;;;;9.10;5.60;;;-1.20;99.90;;;;;;5110886;28;20058;-56
2022/03/05 02:29:41;;;;;;;9.82;5.60;;;-1.20;99.90;;;;;;5110626;28;20055;-56
2022/03/05 02:32:07;;;;;;;9.00;6.20;;;-1.30;99.90;;;;;;5109990;28;20055;-56
2022/03/05 02:34:33;;;;;;;7.90;5.88;;;-1.20;99.90;;;;;;5109368;28;20036;-56
2022/03/05 02:36:59;;;;;;;8.52;4.95;;;-1.20;99.90;;;;;;5110452;28;20047;-56
2022/03/05 02:39:25;;;;;;;9.82;5.38;;;-1.20;99.90;;;;;;5109991;28;20044;-58
2022/03/05 02:41:55;;;;;;;8.23;5.00;;;-1.20;99.90;;;;;;5110473;28;20561;-56
2022/03/05 02:44:22;;;;;;;10.00;5.60;;;-1.20;99.90;;;;;;5103588;28;20044;-57
2022/03/05 02:46:50;;;;;;;9.52;5.30;;;-0.50;99.90;;;;;;5115061;27;20104;-56
2022/03/05 02:49:16;;;;;;;8.43;4.97;;;-1.20;99.90;;;;;;5089934;28;20047;-56
2022/03/05 02:51:42;;;;;;;9.73;5.60;;;-1.20;99.90;;;;;;5088206;28;20051;-57
2022/03/05 02:54:08;;;;;;;8.27;4.30;;;-1.20;99.90;;;;;;5089914;28;20229;-57
2022/03/05 02:56:34;;;;;;;11.48;5.90;;;-1.20;99.90;;;;;;5089696;28;20150;-56
2022/03/05 02:59:00;;;;;;;11.55;4.72;;;-1.30;99.90;;;;;;5107208;28;20059;-56
2022/03/05 03:01:25;;;;;;;7.78;4.80;;;-1.30;99.90;;;;;;5100198;27;20439;-56
2022/03/05 03:03:51;;;;;;;11.85;5.03;;;-1.20;99.90;;;;;;5100938;28;20548;-57
2022/03/05 03:06:17;;;;;;;10.65;4.78;;;-1.30;99.90;;;;;;5109484;28;20520;-56
2022/03/05 03:08:42;;;;;;;10.82;5.07;;;-1.30;99.90;;;;;;5109775;28;20091;-58
2022/03/05 03:11:09;;;;;;;9.95;4.97;;;-1.30;99.90;;;;;;5108599;28;20050;-58
2022/03/05 03:13:34;;;;;;;8.02;4.45;;;-1.20;99.90;;;;;;5109977;28;20118;-55
2022/03/05 03:16:00;;;;;;;10.07;5.25;;;-1.20;99.90;;;;;;5109710;28;20139;-56
2022/03/05 03:18:26;;;;;;;9.20;4.32;;;-1.20;99.90;;;;;;5107709;28;20051;-59
2022/03/05 03:20:51;;;;;;;8.63;4.88;;;-1.20;99.90;;;;;;5109457;28;20040;-58
2022/03/05 03:23:17;;;;;;;8.07;4.60;;;-1.30;99.90;;;;;;5107949;28;20052;-57
2022/03/05 03:25:43;;;;;;;7.03;4.07;;;-1.30;99.90;;;;;;5099129;28;20473;-59
2022/03/05 03:28:09;;;;;;;9.10;4.35;;;-1.30;99.90;;;;;;5103499;28;20047;-58
2022/03/05 03:30:35;;;;;;;7.20;5.00;;;-1.30;99.90;;;;;;5107661;28;20055;-58
2022/03/05 03:33:01;;;;;;;11.73;4.13;;;-1.30;99.90;;;;;;5109602;28;20047;-58
2022/03/05 03:35:27;;;;;;;8.50;4.68;;;-0.90;99.90;;;;;;5104828;28;20426;-58
2022/03/05 03:37:53;;;;;;;7.28;4.45;;;-1.40;99.90;;;;;;5088964;28;20074;-57
2022/03/05 03:40:19;;;;;;;6.65;4.35;;;-1.40;99.90;;;;;;5107546;28;20451;-57
2022/03/05 03:42:48;;;;;;;8.85;4.28;;;-1.40;99.90;;;;;;5108665;27;20551;-59
2022/03/05 03:45:14;;;;;;;7.15;4.78;;;-1.40;99.90;;;;;;5107823;28;20094;-59
2022/03/05 03:47:42;;;;;;;7.13;4.63;;;-0.30;99.90;;;;;;5109356;28;20047;-58
2022/03/05 03:50:11;;;;;;;8.85;4.22;;;-1.50;99.90;;;;;;5107587;28;20127;-58
2022/03/05 03:52:37;;;;;;;8.30;4.65;;;-1.50;99.90;;;;;;5108883;28;20055;-55
2022/03/05 03:55:05;;;;;;;7.90;5.00;;;-1.50;99.90;;;;;;5100352;28;20457;-56
2022/03/05 03:57:32;;;;;;;8.93;4.50;;;-1.60;99.90;;;;;;5093881;28;20055;-56
2022/03/05 03:59:57;;;;;;;13.25;4.63;;;-1.60;99.90;;;;;;5088265;28;20055;-57
2022/03/05 04:02:23;;;;;;;7.72;5.03;;;-1.60;99.90;;;;;;5088700;28;20388;-56
2022/03/05 04:04:49;;;;;;;9.10;5.05;;;-1.40;99.90;;;;;;5108307;28;20126;-57
2022/03/05 04:09:59;;;;;;;7.53;4.18;;;-1.70;99.90;;;;;;5108040;28;20048;-57
2022/03/05 04:12:25;;;;;;;7.65;4.60;;;-1.60;99.90;;;;;;5108242;28;20055;-57
2022/03/05 04:14:51;;;;;;;8.15;4.57;;;-1.70;99.90;;;;;;5108364;28;20049;-58
2022/03/05 04:17:17;;;;;;;8.57;4.88;;;-0.60;99.90;;;;;;5108882;28;20416;-57
2022/03/05 04:19:43;;;;;;;8.15;4.75;;;-1.80;99.90;;;;;;5108040;28;20472;-56
2022/03/05 04:22:10;;;;;;;9.88;5.85;;;-1.80;99.90;;;;;;5108359;28;20054;-56
2022/03/05 04:24:35;;;;;;;9.50;5.32;;;-1.90;99.90;;;;;;5098905;28;20082;-59
2022/03/05 04:27:01;;;;;;;11.70;5.30;;;-1.90;99.90;;;;;;5092280;28;20114;-56
2022/03/05 04:29:27;;;;;;;13.23;6.20;;;-2.00;99.90;;;;;;5108022;27;20048;-58
2022/03/05 04:31:53;;;;;;;7.43;4.68;;;-2.00;99.90;;;;;;5107686;28;20055;-60
2022/03/05 04:34:19;;;;;;;7.93;4.82;;;-2.00;99.90;;;;;;5107686;28;20052;-59
2022/03/05 04:36:45;;;;;;;10.13;4.60;;;-2.10;99.90;;;;;;5107142;28;20135;-72
2022/03/05 04:39:11;;;;;;;8.57;4.45;;;-2.10;99.90;;;;;;5107177;28;20039;-56
2022/03/05 04:41:37;;;;;;;9.35;4.75;;;-1.10;99.90;;;;;;5106989;28;20087;-63
2022/03/05 04:44:03;;;;;;;7.95;4.80;;;-2.20;99.90;;;;;;5107890;28;20900;-57
2022/03/05 04:46:29;;;;;;;8.98;5.80;;;-2.20;99.90;;;;;;5107873;28;20048;-57
2022/03/05 04:48:54;;;;;;;11.65;5.03;;;-2.20;99.90;;;;;;5107835;28;20578;-61
2022/03/05 04:51:20;;;;;;;12.05;6.25;;;-2.30;99.90;;;;;;5107516;28;20048;-58
2022/03/05 04:53:46;;;;;;;8.15;4.57;;;-2.30;99.90;;;;;;5101074;28;20187;-60
2022/03/05 04:56:11;;;;;;;9.77;5.35;;;-2.30;99.90;;;;;;5087518;28;20131;-59
2022/03/05 04:58:37;;;;;;;8.32;5.20;;;-2.30;99.90;;;;;;5101760;28;20043;-57
2022/03/05 05:01:03;;;;;;;8.75;5.30;;;-2.40;99.90;;;;;;5107585;28;20349;-61
2022/03/05 05:03:29;;;;;;;8.25;5.03;;;-2.40;99.90;;;;;;5105766;28;20044;-57
2022/03/05 05:05:56;;;;;;;8.02;5.32;;;-2.40;99.90;;;;;;5107660;28;20050;-70
2022/03/05 05:08:22;;;;;;;9.52;5.85;;;-2.40;99.90;;;;;;5106585;28;20090;-70
2022/03/05 05:10:48;;;;;;;8.30;4.72;;;-2.40;99.90;;;;;;5102873;27;20075;-69
2022/03/05 05:13:13;;;;;;;10.95;5.45;;;-2.50;99.90;;;;;;5087155;28;20563;-56
2022/03/05 05:15:39;;;;;;;8.25;4.88;;;-2.50;99.90;;;;;;5087055;28;20040;-56
2022/03/05 05:18:05;;;;;;;14.73;5.22;;;-2.50;99.90;;;;;;5086392;28;20502;-55
2022/03/05 05:20:31;;;;;;;8.02;4.50;;;-2.50;99.90;;;;;;5087094;28;20050;-56
2022/03/05 05:22:57;;;;;;;8.25;5.20;;;-2.50;99.90;;;;;;5086469;28;20055;-56
2022/03/05 05:25:22;;;;;;;7.85;4.38;;;-2.50;99.90;;;;;;5092888;28;20513;-56
2022/03/05 05:27:48;;;;;;;10.18;5.28;;;-2.50;99.90;;;;;;5107446;28;20118;-56
2022/03/05 05:30:14;;;;;;;7.97;5.15;;;-2.60;99.90;;;;;;5107605;28;20070;-56
2022/03/05 05:32:40;;;;;;;6.45;4.18;;;-2.60;99.90;;;;;;5105274;28;20063;-56
2022/03/05 05:35:07;;;;;;;8.10;4.78;;;-2.60;99.90;;;;;;5107195;28;20075;-56
2022/03/05 05:37:34;;;;;;;8.02;4.95;;;-2.60;99.90;;;;;;5107547;28;20051;-57
2022/03/05 05:40:00;;;;;;;8.13;4.97;;;-2.60;99.90;;;;;;5103594;28;20486;-60
2022/03/05 05:42:25;;;;;;;8.07;4.63;;;-2.70;99.90;;;;;;5085228;28;20493;-59
2022/03/05 05:44:51;;;;;;;7.10;5.00;;;-2.60;99.90;;;;;;5086690;28;20044;-58
2022/03/05 05:47:17;;;;;;;7.97;4.88;;;-2.70;99.90;;;;;;5087670;28;20044;-60
2022/03/05 05:49:42;;;;;;;8.75;4.22;;;-2.70;99.90;;;;;;5091372;28;20448;-70
2022/03/05 05:52:08;;;;;;;9.93;4.88;;;-2.70;99.90;;;;;;5090638;28;20168;-59
2022/03/05 05:54:34;;;;;;;9.63;5.03;;;-2.60;99.90;;;;;;5090933;28;20044;-57
2022/03/05 05:57:00;;;;;;;9.65;5.18;;;-2.70;99.90;;;;;;5092260;28;20047;-56
2022/03/05 05:59:26;;;;;;;9.23;4.82;;;-2.70;99.90;;;;;;5111086;28;20496;-57
2022/03/05 06:01:51;;;;;;;11.70;6.85;;;-2.80;99.90;;;;;;5099114;28;20558;-56
2022/03/05 06:04:17;;;;;;;6.82;4.47;;;-2.80;99.90;;;;;;5110255;28;20035;-57
2022/03/05 06:06:43;;;;;;;10.90;5.45;;;-2.80;99.90;;;;;;5110683;28;20486;-57
2022/03/05 06:09:09;;;;;;;9.38;5.18;;;-2.80;99.90;;;;;;5111120;28;20043;-56
2022/03/05 06:11:35;;;;;;;11.15;5.10;;;-2.30;99.90;;;;;;5110238;28;20047;-57
2022/03/05 06:14:00;;;;;;;8.57;5.03;;;-2.80;99.90;;;;;;5108184;28;20036;-56
2022/03/05 06:16:26;;;;;;;12.38;5.63;;;-2.80;99.90;;;;;;5108028;28;20056;-72
2022/03/05 06:18:52;;;;;;;8.02;4.85;;;-2.80;99.90;;;;;;5110446;27;20094;-66
2022/03/05 06:21:18;;;;;;;11.52;5.82;;;-2.80;99.90;;;;;;5110377;28;20084;-66
2022/03/05 06:23:43;;;;;;;10.90;5.57;;;-2.80;99.90;;;;;;5109719;28;20046;-65
2022/03/05 06:26:09;;;;;;;8.25;4.88;;;-2.80;99.90;;;;;;5110238;28;20050;-72
2022/03/05 06:28:35;;;;;;;9.40;5.90;;;-2.80;99.90;;;;;;5109711;28;20039;-65
2022/03/05 06:31:01;;;;;;;10.60;5.75;;;-2.80;99.90;;;;;;5109698;28;20055;-70
2022/03/05 06:33:27;;;;;;;11.20;5.57;;;-2.80;99.90;;;;;;5110020;27;20066;-74
2022/03/05 06:35:53;;;;;;;10.38;5.93;;;-2.80;99.90;;;;;;5108600;28;20058;-74
2022/03/05 06:38:18;;;;;;;11.32;5.55;;;-2.80;99.90;;;;;;5110219;28;20409;-73
2022/03/05 06:40:45;;;;;;;10.48;5.55;;;-1.70;99.90;;;;;;5109642;28;20046;-73
2022/03/05 06:43:11;;;;;;;9.93;5.18;;;-2.70;99.90;;;;;;5109338;28;20127;-65
2022/03/05 06:45:37;;;;;;;9.45;4.90;;;-2.60;99.90;;;;;;5109982;28;20051;-61
2022/03/05 06:48:04;;;;;;;11.68;5.13;;;-1.70;99.90;;;;;;5108700;28;20052;-64
2022/03/05 06:50:29;;;;;;;10.52;5.60;;;-2.50;99.90;;;;;;5110181;28;20047;-67
2022/03/05 06:52:55;;;;;;;10.18;5.35;;;-2.40;99.90;;;;;;5109471;27;20096;-61
2022/03/05 06:55:23;;;;;;;7.82;5.32;;;-2.40;99.90;;;;;;5110083;27;20150;-69
2022/03/05 06:57:49;;;;;;;9.77;6.03;;;-2.30;99.90;;;;;;5104329;28;20512;-68
2022/03/05 07:00:15;;;;;;;9.80;5.43;;;-2.20;99.90;;;;;;5109205;28;20044;-68
2022/03/05 07:02:42;;;;;;;8.88;5.80;;;-2.10;99.90;;;;;;5109774;28;20047;-66
2022/03/05 07:05:08;;;;;;;9.02;5.65;;;-2.00;99.90;;;;;;5109406;28;20385;-65
2022/03/05 07:07:34;;;;;;;12.10;5.60;;;-1.90;99.90;;;;;;5108094;28;20134;-56
2022/03/05 07:10:00;;;;;;;9.98;5.75;;;-1.80;99.90;;;;;;5108482;28;20180;-56
2022/03/05 07:12:25;;;;;;;10.10;6.20;;;-1.60;99.90;;;;;;5109107;28;20088;-56
2022/03/05 07:14:51;;;;;;;12.27;6.75;;;-1.40;99.90;;;;;;5109367;28;20515;-56
2022/03/05 07:17:18;;;;;;;8.95;5.75;;;-1.30;99.90;;;;;;5105862;28;20062;-57
2022/03/05 07:19:44;;;;;;;12.02;6.95;;;-1.10;99.90;;;;;;5108739;28;20083;-57
2022/03/05 07:22:10;;;;;;;8.88;5.78;;;-1.00;99.90;;;;;;5109537;28;20048;-56
2022/03/05 07:24:36;;;;;;;9.82;5.90;;;-0.90;99.90;;;;;;5108285;28;20044;-56
2022/03/05 07:27:03;;;;;;;15.65;7.10;;;-0.70;99.90;;;;;;5093082;28;20040;-56
2022/03/05 07:29:28;;;;;;;12.45;7.35;;;-0.60;99.90;;;;;;5107852;28;20122;-57
2022/03/05 07:31:54;;;;;;;11.30;6.20;;;-0.60;99.90;;;;;;5108066;28;20062;-56
2022/03/05 07:34:20;;;;;;;11.63;6.55;;;-0.50;99.90;;;;;;5108741;28;20047;-57
2022/03/05 07:36:49;;;;;;;10.45;6.65;;;-0.40;99.90;;;;;;5108295;27;20048;-56
2022/03/05 07:39:14;;;;;;;13.88;7.57;;;-0.40;99.90;;;;;;5108926;28;20071;-56
2022/03/05 07:41:41;;;;;;;14.60;7.70;;;-0.30;99.90;;;;;;5107633;28;20071;-56
2022/03/05 07:44:07;;;;;;;12.35;6.50;;;-0.20;99.90;;;;;;5101685;27;20043;-56
2022/03/05 07:46:36;;;;;;;15.55;7.03;;;-0.10;99.90;;;;;;5100320;28;20097;-56
2022/03/05 07:49:01;;;;;;;12.85;7.88;;;0.10;99.90;;;;;;5108174;28;20602;-57
2022/03/05 07:51:27;;;;;;;10.43;6.97;;;0.90;99.90;;;;;;5108755;27;20051;-56
2022/03/05 07:53:53;;;;;;;12.13;7.45;;;0.80;99.90;;;;;;5101371;28;20081;-59
2022/03/05 07:56:20;;;;;;;12.73;6.95;;;0.60;99.90;;;;;;5088073;28;20456;-67
2022/03/05 07:58:46;;;;;;;12.77;7.05;;;0.90;99.90;;;;;;5103222;28;20055;-58
2022/03/05 08:01:12;;;;;;;16.48;6.57;;;1.00;99.90;;;;;;5106791;28;20058;-56
2022/03/05 08:03:38;;;;;;;16.73;7.00;;;1.10;99.90;;;;;;5108285;28;20046;-56
2022/03/05 08:06:04;;;;;;;9.77;6.50;;;1.20;99.90;;;;;;5089960;28;20054;-58
2022/03/05 08:08:29;;;;;;;11.20;6.80;;;1.40;99.90;;;;;;5108797;28;20051;-58
2022/03/05 08:10:56;;;;;;;12.30;7.30;;;1.50;99.90;;;;;;5107444;28;20108;-62
2022/03/05 08:13:22;;;;;;;10.55;6.50;;;1.70;99.90;;;;;;5108089;28;20054;-56
2022/03/05 08:15:48;;;;;;;16.23;8.07;;;1.80;99.90;;;;;;5106387;28;20124;-56
2022/03/05 08:18:14;;;;;;;13.07;6.45;;;2.00;99.90;;;;;;5108458;28;20044;-56
2022/03/05 08:20:40;;;;;;;14.00;7.40;;;2.20;99.90;;;;;;5108224;28;20421;-57
2022/03/05 08:23:06;;;;;;;11.82;7.03;;;2.50;99.90;;;;;;5108241;28;20066;-57
2022/03/05 08:25:32;;;;;;;13.63;6.57;;;2.60;99.90;;;;;;5107138;28;20035;-56
2022/03/05 08:27:58;;;;;;;15.75;6.97;;;2.80;99.90;;;;;;5108448;28;20047;-56
2022/03/05 08:30:24;;;;;;;10.02;6.85;;;2.80;99.90;;;;;;5097645;28;20050;-56
2022/03/05 08:32:50;;;;;;;9.40;6.63;;;3.00;99.90;;;;;;5101625;28;20047;-55
2022/03/05 08:35:16;;;;;;;13.13;8.27;;;3.00;99.90;;;;;;5096518;28;20496;-56
2022/03/05 08:37:44;;;;;;;13.30;7.47;;;3.00;99.90;;;;;;5113521;27;20116;-56
2022/03/05 08:40:12;;;;;;;10.93;6.18;;;3.20;99.90;;;;;;5097965;27;20101;-56
2022/03/05 08:42:38;;;;;;;12.10;7.05;;;3.30;99.90;;;;;;5101248;28;20401;-55
2022/03/05 08:45:05;;;;;;;12.13;6.80;;;3.40;99.90;;;;;;5105890;28;20035;-57
2022/03/05 08:47:32;;;;;;;10.05;5.85;;;3.30;99.90;;;;;;5102989;28;20047;-56
2022/03/05 08:49:58;;;;;;;15.88;7.53;;;3.40;99.90;;;;;;5107118;28;20046;-56
2022/03/05 08:52:23;;;;;;;17.02;7.00;;;3.50;99.90;;;;;;5095257;28;20488;-56
2022/03/05 08:54:49;;;;;;;11.63;6.68;;;3.70;99.90;;;;;;5100661;28;20209;-56
2022/03/05 08:57:15;;;;;;;11.82;5.85;;;3.80;99.90;;;;;;5093976;28;20118;-58
2022/03/05 08:59:41;;;;;;;11.95;6.47;;;3.90;99.90;;;;;;5095492;28;20051;-63
2022/03/05 09:02:08;;;;;;;14.63;7.05;;;4.00;99.90;;;;;;5092835;28;20539;-56
2022/03/05 09:04:34;;;;;;;14.18;8.95;;;4.10;99.90;;;;;;5097669;28;20063;-55
2022/03/05 09:07:00;;;;;;;14.85;9.73;;;4.30;99.90;;;;;;5092655;28;20104;-56
2022/03/05 09:09:26;;;;;;;13.63;8.77;;;4.50;99.90;;;;;;5094089;28;20047;-61
2022/03/05 09:11:52;;;;;;;13.65;7.97;;;4.70;99.90;;;;;;5103566;28;20047;-60
2022/03/05 09:14:18;;;;;;;10.07;7.18;;;4.90;99.90;;;;;;5105580;28;20048;-58
2022/03/05 09:16:43;;;;;;;13.35;8.02;;;5.30;99.90;;;;;;5102204;28;20047;-56
2022/03/05 09:19:09;;;;;;;12.27;6.85;;;5.40;99.90;;;;;;5105435;28;20367;-56
2022/03/05 09:21:36;;;;;;;10.82;6.18;;;5.70;99.90;;;;;;5104200;28;20043;-57
2022/03/05 09:24:03;;;;;;;11.65;7.07;;;5.90;99.90;;;;;;5104389;28;20048;-57
2022/03/05 09:26:29;;;;;;;12.13;6.78;;;6.20;99.90;;;;;;5103810;28;20041;-57
2022/03/05 09:28:54;;;;;;;13.68;6.88;;;6.50;99.90;;;;;;5104806;28;20436;-57
2022/03/05 09:31:20;;;;;;;14.43;6.78;;;6.80;99.90;;;;;;5105122;28;20055;-59
2022/03/05 09:33:47;;;;;;;11.57;6.47;;;7.20;99.90;;;;;;5087078;28;20052;-57
2022/03/05 09:36:13;;;;;;;10.45;6.15;;;7.40;99.90;;;;;;5094862;28;20136;-56
2022/03/05 09:38:38;;;;;;;11.27;7.22;;;7.70;99.90;;;;;;5095800;28;20160;-56
2022/03/05 09:41:06;;;;;;;16.13;7.60;;;8.00;99.90;;;;;;5101063;28;20153;-57
2022/03/05 09:43:34;;;;;;;13.60;6.47;;;8.20;99.90;;;;;;5102063;28;20104;-60
2022/03/05 09:46:01;;;;;;;11.68;7.07;;;8.40;99.90;;;;;;5101600;28;20476;-62
2022/03/05 09:48:28;;;;;;;13.05;7.57;;;8.70;99.90;;;;;;5102480;28;20508;-60
2022/03/05 09:50:56;;;;;;;14.18;7.82;;;8.90;99.90;;;;;;5101601;28;20057;-56
2022/03/05 09:53:27;;;;;;;12.05;7.22;;;9.10;99.90;;;;;;5100444;28;20158;-56
2022/03/05 09:55:53;;;;;;;11.07;6.80;;;9.30;99.90;;;;;;5103154;28;20047;-62
2022/03/05 09:58:18;;;;;;;12.10;6.97;;;9.50;99.90;;;;;;5101600;28;20140;-62
2022/03/05 10:00:44;;;;;;;13.07;7.60;;;9.70;99.90;;;;;;5102079;28;20069;-56
2022/03/05 10:03:15;;;;;;;16.15;7.28;;;9.70;99.90;;;;;;5101224;28;20120;-58
2022/03/05 10:05:41;;;;;;;10.40;7.35;;;9.70;99.90;;;;;;5101256;28;20040;-58
2022/03/05 10:08:17;;;;;;;15.75;8.13;;;10.10;99.90;;;;;;5098320;28;20060;-56
2022/03/05 10:10:57;;;;;;;13.65;6.97;;;10.00;99.90;;;;;;5115798;28;20056;-56
2022/03/05 10:13:36;;;;;;;14.68;7.13;;;10.30;99.90;;;;;;5098274;28;20565;-58
2022/03/05 10:16:04;;;;;;;12.07;7.90;;;10.50;99.90;;;;;;5102687;28;20054;-56
2022/03/05 10:18:38;;;;;;;14.15;7.97;;;10.70;99.90;;;;;;5101962;28;20653;-58
2022/03/05 10:21:09;;;;;;;17.40;8.55;;;10.80;99.90;;;;;;5102149;28;20083;-56
2022/03/05 10:23:37;;;;;;;9.73;6.80;;;11.10;99.90;;;;;;5093106;28;20046;-56
2022/03/05 10:26:05;;;;;;;12.98;8.48;;;11.20;99.90;;;;;;5091290;28;20063;-56
2022/03/05 10:28:31;;;;;;;18.23;8.43;;;11.20;99.90;;;;;;5095304;28;20467;-56
2022/03/05 10:31:02;;;;;;;11.20;7.00;;;11.30;99.90;;;;;;5071403;28;20051;-57
2022/03/05 10:33:37;;;;;;;11.20;7.50;;;11.40;99.90;;;;;;5101824;28;20090;-56
2022/03/05 10:36:16;;;;;;;11.77;7.95;;;11.50;99.90;;;;;;5101105;28;20048;-56
2022/03/05 10:38:47;;;;;;;11.65;7.80;;;11.40;99.90;;;;;;5094647;28;20059;-57
2022/03/05 10:41:17;;;;;;;13.77;7.85;;;11.50;99.90;;;;;;5098604;27;20056;-56
2022/03/05 10:43:45;;;;;;;12.52;7.82;;;11.60;99.90;;;;;;5092518;28;20039;-57
2022/03/05 10:46:10;;;;;;;14.10;8.65;;;11.40;99.90;;;;;;5094928;28;20097;-57
2022/03/05 10:48:42;;;;;;;12.85;8.13;;;11.40;99.90;;;;;;5094238;28;20043;-56
2022/03/05 10:51:17;;;;;;;13.82;8.50;;;11.50;99.90;;;;;;5092606;28;20040;-56
2022/03/05 10:53:42;;;;;;;10.98;7.03;;;11.50;99.90;;;;;;5086895;28;20051;-60
2022/03/05 10:56:28;;;;;;;12.38;8.88;;;11.50;99.90;;;;;;5101051;28;20083;-59
2022/03/05 10:59:09;;;;;;;12.88;7.78;;;11.70;99.90;;;;;;5095356;27;20048;-58
2022/03/05 11:01:45;;;;;;;11.60;8.50;;;11.60;99.90;;;;;;5091591;28;20488;-65
2022/03/05 11:04:11;;;;;;;26.25;14.00;;;11.80;99.90;;;;;;5097857;28;20044;-64
2022/03/05 11:06:40;;;;;;;26.63;14.35;;;11.80;99.90;;;;;;5094339;28;20047;-56
2022/03/05 11:09:07;;;;;;;21.48;13.30;;;11.90;99.90;;;;;;5095877;27;20032;-58
2022/03/05 11:11:38;;;;;;;20.33;11.63;;;12.00;99.90;;;;;;5107319;27;20044;-56
2022/03/05 11:14:05;;;;;;;13.88;9.77;;;12.00;99.90;;;;;;5098988;28;20036;-57
2022/03/05 11:16:32;;;;;;;14.88;8.48;;;12.00;99.90;;;;;;5098455;28;20051;-58
2022/03/05 11:18:59;;;;;;;12.35;7.60;;;12.00;99.90;;;;;;5095568;28;20066;-58
2022/03/05 11:21:28;;;;;;;12.68;7.82;;;12.10;99.90;;;;;;5098338;28;20232;-56
2022/03/05 11:23:54;;;;;;;11.98;8.32;;;12.00;99.90;;;;;;5087716;28;20048;-57
2022/03/05 11:26:20;;;;;;;16.77;9.88;;;12.10;99.90;;;;;;5104221;28;20047;-58
2022/03/05 11:28:48;;;;;;;20.30;13.05;;;12.30;99.90;;;;;;5090645;28;20048;-58
2022/03/05 11:31:24;;;;;;;18.83;12.00;;;12.40;99.90;;;;;;5099493;28;20147;-56
2022/03/05 11:33:51;;;;;;;20.40;11.45;;;12.40;99.90;;;;;;5092824;28;20052;-57
2022/03/05 11:36:36;;;;;;;22.17;13.77;;;12.50;99.90;;;;;;5088164;28;20040;-57
2022/03/05 11:39:31;;;;;;;22.27;15.23;;;13.00;99.70;;;;;;5095071;28;20086;-57
2022/03/05 11:42:03;;;;;;;19.90;14.13;;;15.00;97.40;;;;;;5094111;28;20043;-57
2022/03/05 11:44:41;;;;;;;15.57;10.07;;;17.30;96.30;;;;;;5103008;28;20047;-56
2022/03/05 11:47:18;;;;;;;15.20;10.73;;;18.60;94.50;;;;;;5086817;28;20044;-57
2022/03/05 11:49:59;;;;;;;17.30;10.35;;;20.10;91.20;;;;;;5086858;28;20134;-57
2022/03/05 11:52:39;;;;;;;15.00;9.40;;;21.10;88.20;;;;;;5105487;28;20055;-56
2022/03/05 11:55:26;;;;;;;18.05;11.07;;;21.80;84.10;;;;;;5085351;28;20158;-57
2022/03/05 11:57:52;;;;;;;24.67;15.32;;;22.20;80.90;;;;;;5089554;28;20377;-57
2022/03/05 12:00:20;;;;;;;23.42;15.98;;;22.60;83.30;;;;;;5088699;28;20370;-57
2022/03/05 12:02:55;;;;;;;26.48;18.70;;;23.00;80.50;;;;;;5087182;28;20374;-57
2022/03/05 12:05:36;;;;;;;29.00;16.73;;;23.00;79.70;;;;;;5099406;28;20044;-57
2022/03/05 12:08:03;;;;;;;23.45;13.68;;;23.30;76.20;;;;;;5086422;28;20513;-57
2022/03/05 12:10:29;;;;;;;16.48;10.27;;;23.20;75.20;;;;;;5093518;28;20460;-57
2022/03/05 12:13:09;;;;;;;14.18;9.50;;;23.60;76.20;;;;;;5091552;28;20039;-57
2022/03/05 12:15:35;;;;;;;14.57;8.90;;;24.50;72.90;;;;;;5084633;28;20489;-56
2022/03/05 12:18:03;;;;;;;12.40;8.93;;;24.30;72.70;;;;;;5092962;28;20056;-57
2022/03/05 12:20:33;;;;;;;13.85;9.30;;;25.00;71.50;;;;;;5101864;28;20047;-57
2022/03/05 12:23:10;;;;;;;16.17;10.50;;;25.20;69.80;;;;;;5094770;28;20769;-57
2022/03/05 12:25:38;;;;;;;14.77;9.27;;;24.50;65.70;;;;;;5085013;28;20044;-57
2022/03/05 12:28:11;;;;;;;16.17;10.38;;;23.80;68.60;;;;;;5098853;28;20044;-56
2022/03/05 12:30:38;;;;;;;15.07;9.90;;;23.60;68.40;;;;;;5103641;28;20521;-57
2022/03/05 12:33:06;;;;;;;14.60;10.13;;;22.90;68.60;;;;;;5095006;28;20566;-56
2022/03/05 12:35:33;;;;;;;20.10;12.43;;;21.00;69.60;;;;;;5093885;28;20385;-56
2022/03/05 12:37:59;;;;;;;15.55;10.57;;;19.70;72.30;;;;;;5104718;28;20105;-57
2022/03/05 12:40:27;;;;;;;18.10;11.07;;;18.60;74.60;;;;;;5102870;28;20125;-57
2022/03/05 12:42:54;;;;;;;11.98;8.57;;;17.70;76.30;;;;;;5095193;28;20433;-56
2022/03/05 12:45:26;;;;;;;11.95;8.63;;;17.10;78.10;;;;;;5083927;28;20097;-56